sensor_id;sensor_type;location;lat;lon;timestamp;P1;durP1;ratioP1;P2;durP2;ratioP2
75667;SDS011;64266;48.798;44.756;2022-12-07T00:02:05;15.63;;;6.50;;
75667;SDS011;64266;48.798;44.756;2022-12-07T00:04:31;18.33;;;7.35;;
75667;SDS011;64266;48.798;44.756;2022-12-07T00:06:56;14.77;;;5.78;;
75667;SDS011;64266;48.798;44.756;2022-12-07T00:09:22;17.55;;;7.20;;
75667;SDS011;64266;48.798;44.756;2022-12-07T00:11:49;14.75;;;6.38;;
75667;SDS011;64266;48.798;44.756;2022-12-07T00:14:17;16.65;;;7.00;;
75667;SDS011;64266;48.798;44.756;2022-12-07T00:16:43;15.27;;;6.65;;
75667;SDS011;64266;48.798;44.756;2022-12-07T00:19:11;16.08;;;6.65;;
75667;SDS011;64266;48.798;44.756;2022-12-07T00:21:38;18.85;;;6.25;;
75667;SDS011;64266;48.798;44.756;2022-12-07T00:24:05;16.88;;;7.18;;
75667;SDS011;64266;48.798;44.756;2022-12-07T00:26:32;20.02;;;6.35;;
75667;SDS011;64266;48.798;44.756;2022-12-07T00:29:04;18.02;;;6.82;;
75667;SDS011;64266;48.798;44.756;2022-12-07T00:31:32;14.48;;;6.32;;
75667;SDS011;64266;48.798;44.756;2022-12-07T00:34:01;15.23;;;7.30;;
75667;SDS011;64266;48.798;44.756;2022-12-07T00:36:28;17.45;;;7.25;;
75667;SDS011;64266;48.798;44.756;2022-12-07T00:38:54;14.60;;;6.25;;
75667;SDS011;64266;48.798;44.756;2022-12-07T00:41:21;15.30;;;5.90;;
75667;SDS011;64266;48.798;44.756;2022-12-07T00:43:48;16.60;;;6.40;;
75667;SDS011;64266;48.798;44.756;2022-12-07T00:46:15;13.75;;;6.10;;
75667;SDS011;64266;48.798;44.756;2022-12-07T00:48:41;18.20;;;7.03;;
75667;SDS011;64266;48.798;44.756;2022-12-07T00:51:09;18.15;;;6.65;;
75667;SDS011;64266;48.798;44.756;2022-12-07T00:53:36;13.80;;;5.43;;
75667;SDS011;64266;48.798;44.756;2022-12-07T00:58:38;12.60;;;5.55;;
75667;SDS011;64266;48.798;44.756;2022-12-07T01:01:05;17.20;;;6.47;;
75667;SDS011;64266;48.798;44.756;2022-12-07T01:03:32;15.38;;;6.65;;
75667;SDS011;64266;48.798;44.756;2022-12-07T01:05:58;15.50;;;6.40;;
75667;SDS011;64266;48.798;44.756;2022-12-07T01:08:25;15.02;;;5.78;;
75667;SDS011;64266;48.798;44.756;2022-12-07T01:11:02;13.93;;;5.35;;
75667;SDS011;64266;48.798;44.756;2022-12-07T01:13:31;17.65;;;6.90;;
75667;SDS011;64266;48.798;44.756;2022-12-07T01:15:58;15.43;;;6.10;;
75667;SDS011;64266;48.798;44.756;2022-12-07T01:18:26;13.82;;;6.57;;
75667;SDS011;64266;48.798;44.756;2022-12-07T01:21:13;12.13;;;5.70;;
75667;SDS011;64266;48.798;44.756;2022-12-07T01:23:41;12.68;;;5.55;;
75667;SDS011;64266;48.798;44.756;2022-12-07T01:26:09;12.68;;;5.10;;
75667;SDS011;64266;48.798;44.756;2022-12-07T01:28:37;17.30;;;6.22;;
75667;SDS011;64266;48.798;44.756;2022-12-07T01:33:51;15.50;;;6.50;;
75667;SDS011;64266;48.798;44.756;2022-12-07T01:38:46;15.32;;;5.95;;
75667;SDS011;64266;48.798;44.756;2022-12-07T01:41:16;15.05;;;6.70;;
75667;SDS011;64266;48.798;44.756;2022-12-07T01:46:33;14.55;;;5.65;;
75667;SDS011;64266;48.798;44.756;2022-12-07T01:48:59;14.32;;;5.90;;
75667;SDS011;64266;48.798;44.756;2022-12-07T01:51:25;16.48;;;5.60;;
75667;SDS011;64266;48.798;44.756;2022-12-07T01:53:52;12.10;;;5.38;;
75667;SDS011;64266;48.798;44.756;2022-12-07T01:56:19;12.93;;;5.95;;
75667;SDS011;64266;48.798;44.756;2022-12-07T01:58:51;13.10;;;5.90;;
75667;SDS011;64266;48.798;44.756;2022-12-07T02:01:18;15.77;;;6.03;;
75667;SDS011;64266;48.798;44.756;2022-12-07T02:03:44;15.82;;;6.32;;
75667;SDS011;64266;48.798;44.756;2022-12-07T02:06:12;16.73;;;5.47;;
75667;SDS011;64266;48.798;44.756;2022-12-07T02:08:42;14.50;;;5.18;;
75667;SDS011;64266;48.798;44.756;2022-12-07T02:11:08;14.15;;;6.25;;
75667;SDS011;64266;48.798;44.756;2022-12-07T02:13:36;13.80;;;5.72;;
75667;SDS011;64266;48.798;44.756;2022-12-07T02:27:01;14.63;;;6.03;;
75667;SDS011;64266;48.798;44.756;2022-12-07T02:29:33;10.82;;;4.55;;
75667;SDS011;64266;48.798;44.756;2022-12-07T02:32:10;15.30;;;5.43;;
75667;SDS011;64266;48.798;44.756;2022-12-07T02:40:14;15.13;;;5.55;;
75667;SDS011;64266;48.798;44.756;2022-12-07T02:42:51;15.40;;;5.82;;
75667;SDS011;64266;48.798;44.756;2022-12-07T02:45:32;13.52;;;5.85;;
75667;SDS011;64266;48.798;44.756;2022-12-07T02:48:01;12.82;;;4.97;;
75667;SDS011;64266;48.798;44.756;2022-12-07T02:50:29;11.77;;;5.28;;
75667;SDS011;64266;48.798;44.756;2022-12-07T02:52:55;20.65;;;5.70;;
75667;SDS011;64266;48.798;44.756;2022-12-07T02:55:22;15.80;;;5.00;;
75667;SDS011;64266;48.798;44.756;2022-12-07T02:58:00;14.45;;;5.20;;
75667;SDS011;64266;48.798;44.756;2022-12-07T03:01:03;16.10;;;5.28;;
75667;SDS011;64266;48.798;44.756;2022-12-07T03:03:40;14.15;;;5.38;;
75667;SDS011;64266;48.798;44.756;2022-12-07T03:08:58;11.07;;;5.32;;
75667;SDS011;64266;48.798;44.756;2022-12-07T03:11:42;15.52;;;5.72;;
75667;SDS011;64266;48.798;44.756;2022-12-07T03:14:16;16.52;;;6.55;;
75667;SDS011;64266;48.798;44.756;2022-12-07T03:16:52;15.18;;;6.00;;
75667;SDS011;64266;48.798;44.756;2022-12-07T03:19:24;19.23;;;5.78;;
75667;SDS011;64266;48.798;44.756;2022-12-07T03:22:02;16.88;;;6.60;;
75667;SDS011;64266;48.798;44.756;2022-12-07T03:24:34;15.02;;;6.68;;
75667;SDS011;64266;48.798;44.756;2022-12-07T03:27:15;18.73;;;7.38;;
75667;SDS011;64266;48.798;44.756;2022-12-07T03:29:54;19.80;;;7.07;;
75667;SDS011;64266;48.798;44.756;2022-12-07T03:42:59;24.13;;;8.38;;
75667;SDS011;64266;48.798;44.756;2022-12-07T03:45:34;19.08;;;7.10;;
75667;SDS011;64266;48.798;44.756;2022-12-07T03:50:57;24.95;;;9.50;;
75667;SDS011;64266;48.798;44.756;2022-12-07T03:53:43;22.35;;;7.97;;
75667;SDS011;64266;48.798;44.756;2022-12-07T03:56:20;29.80;;;9.55;;
75667;SDS011;64266;48.798;44.756;2022-12-07T03:58:48;28.60;;;9.85;;
75667;SDS011;64266;48.798;44.756;2022-12-07T04:01:17;29.98;;;10.55;;
75667;SDS011;64266;48.798;44.756;2022-12-07T04:03:43;36.00;;;10.98;;
75667;SDS011;64266;48.798;44.756;2022-12-07T04:06:09;31.45;;;12.48;;
75667;SDS011;64266;48.798;44.756;2022-12-07T04:08:35;38.00;;;12.43;;
75667;SDS011;64266;48.798;44.756;2022-12-07T04:11:01;34.85;;;11.40;;
75667;SDS011;64266;48.798;44.756;2022-12-07T04:13:27;33.92;;;10.07;;
75667;SDS011;64266;48.798;44.756;2022-12-07T04:15:53;33.90;;;10.75;;
75667;SDS011;64266;48.798;44.756;2022-12-07T04:18:19;33.60;;;12.63;;
75667;SDS011;64266;48.798;44.756;2022-12-07T04:20:45;32.10;;;12.63;;
75667;SDS011;64266;48.798;44.756;2022-12-07T04:23:11;31.63;;;11.50;;
75667;SDS011;64266;48.798;44.756;2022-12-07T04:25:37;29.13;;;11.15;;
75667;SDS011;64266;48.798;44.756;2022-12-07T04:28:03;29.63;;;10.30;;
75667;SDS011;64266;48.798;44.756;2022-12-07T04:30:30;31.45;;;11.55;;
75667;SDS011;64266;48.798;44.756;2022-12-07T04:32:56;26.08;;;10.85;;
75667;SDS011;64266;48.798;44.756;2022-12-07T04:35:22;31.35;;;11.73;;
75667;SDS011;64266;48.798;44.756;2022-12-07T04:37:48;31.05;;;11.80;;
75667;SDS011;64266;48.798;44.756;2022-12-07T04:40:14;34.78;;;11.00;;
75667;SDS011;64266;48.798;44.756;2022-12-07T04:42:40;35.28;;;11.63;;
75667;SDS011;64266;48.798;44.756;2022-12-07T04:45:06;33.42;;;11.52;;
75667;SDS011;64266;48.798;44.756;2022-12-07T04:47:32;27.90;;;10.00;;
75667;SDS011;64266;48.798;44.756;2022-12-07T04:49:58;28.88;;;9.52;;
75667;SDS011;64266;48.798;44.756;2022-12-07T04:52:24;35.00;;;10.32;;
75667;SDS011;64266;48.798;44.756;2022-12-07T04:54:50;40.63;;;12.77;;
75667;SDS011;64266;48.798;44.756;2022-12-07T04:57:15;31.17;;;9.70;;
75667;SDS011;64266;48.798;44.756;2022-12-07T04:59:41;32.85;;;10.52;;
75667;SDS011;64266;48.798;44.756;2022-12-07T05:02:07;29.92;;;10.25;;
75667;SDS011;64266;48.798;44.756;2022-12-07T05:04:33;30.80;;;8.68;;
75667;SDS011;64266;48.798;44.756;2022-12-07T05:06:59;30.27;;;8.60;;
75667;SDS011;64266;48.798;44.756;2022-12-07T05:09:25;30.52;;;10.35;;
75667;SDS011;64266;48.798;44.756;2022-12-07T05:11:51;24.38;;;9.23;;
75667;SDS011;64266;48.798;44.756;2022-12-07T05:14:19;25.95;;;9.77;;
75667;SDS011;64266;48.798;44.756;2022-12-07T05:16:47;26.10;;;9.77;;
75667;SDS011;64266;48.798;44.756;2022-12-07T05:19:15;30.58;;;9.23;;
75667;SDS011;64266;48.798;44.756;2022-12-07T05:21:42;26.02;;;9.63;;
75667;SDS011;64266;48.798;44.756;2022-12-07T05:24:10;29.25;;;9.75;;
75667;SDS011;64266;48.798;44.756;2022-12-07T05:26:38;21.88;;;8.70;;
75667;SDS011;64266;48.798;44.756;2022-12-07T05:29:04;22.00;;;7.47;;
75667;SDS011;64266;48.798;44.756;2022-12-07T05:31:30;27.70;;;10.23;;
75667;SDS011;64266;48.798;44.756;2022-12-07T05:33:58;21.95;;;8.13;;
75667;SDS011;64266;48.798;44.756;2022-12-07T05:36:25;25.42;;;8.50;;
75667;SDS011;64266;48.798;44.756;2022-12-07T05:38:53;38.35;;;11.85;;
75667;SDS011;64266;48.798;44.756;2022-12-07T05:41:20;21.42;;;8.65;;
75667;SDS011;64266;48.798;44.756;2022-12-07T05:44:05;23.27;;;9.88;;
75667;SDS011;64266;48.798;44.756;2022-12-07T05:46:31;28.35;;;9.57;;
75667;SDS011;64266;48.798;44.756;2022-12-07T05:48:57;36.00;;;10.15;;
75667;SDS011;64266;48.798;44.756;2022-12-07T05:51:24;34.60;;;10.23;;
75667;SDS011;64266;48.798;44.756;2022-12-07T05:53:50;41.38;;;13.70;;
75667;SDS011;64266;48.798;44.756;2022-12-07T05:56:16;33.88;;;13.52;;
75667;SDS011;64266;48.798;44.756;2022-12-07T05:58:42;37.00;;;11.07;;
75667;SDS011;64266;48.798;44.756;2022-12-07T06:01:26;30.75;;;9.90;;
75667;SDS011;64266;48.798;44.756;2022-12-07T06:03:52;29.88;;;9.10;;
75667;SDS011;64266;48.798;44.756;2022-12-07T06:06:19;25.73;;;6.93;;
75667;SDS011;64266;48.798;44.756;2022-12-07T06:08:47;17.27;;;7.07;;
75667;SDS011;64266;48.798;44.756;2022-12-07T06:11:13;19.63;;;8.00;;
75667;SDS011;64266;48.798;44.756;2022-12-07T06:13:58;19.27;;;6.53;;
75667;SDS011;64266;48.798;44.756;2022-12-07T06:16:24;16.90;;;6.00;;
75667;SDS011;64266;48.798;44.756;2022-12-07T06:18:50;13.48;;;5.35;;
75667;SDS011;64266;48.798;44.756;2022-12-07T06:21:16;14.05;;;5.53;;
75667;SDS011;64266;48.798;44.756;2022-12-07T06:23:42;15.77;;;5.40;;
75667;SDS011;64266;48.798;44.756;2022-12-07T06:26:08;16.73;;;7.00;;
75667;SDS011;64266;48.798;44.756;2022-12-07T06:28:34;16.38;;;6.93;;
75667;SDS011;64266;48.798;44.756;2022-12-07T06:31:00;15.85;;;5.93;;
75667;SDS011;64266;48.798;44.756;2022-12-07T06:33:27;14.80;;;5.10;;
75667;SDS011;64266;48.798;44.756;2022-12-07T06:35:54;17.73;;;6.20;;
75667;SDS011;64266;48.798;44.756;2022-12-07T06:38:21;14.32;;;5.05;;
75667;SDS011;64266;48.798;44.756;2022-12-07T06:40:47;19.42;;;6.13;;
75667;SDS011;64266;48.798;44.756;2022-12-07T06:43:13;13.10;;;4.30;;
75667;SDS011;64266;48.798;44.756;2022-12-07T06:45:40;17.85;;;4.90;;
75667;SDS011;64266;48.798;44.756;2022-12-07T06:48:07;21.17;;;6.55;;
75667;SDS011;64266;48.798;44.756;2022-12-07T06:50:33;21.63;;;6.25;;
75667;SDS011;64266;48.798;44.756;2022-12-07T06:52:59;40.95;;;10.10;;
75667;SDS011;64266;48.798;44.756;2022-12-07T06:55:25;21.17;;;7.28;;
75667;SDS011;64266;48.798;44.756;2022-12-07T06:57:51;18.50;;;6.07;;
75667;SDS011;64266;48.798;44.756;2022-12-07T07:00:17;13.18;;;5.03;;
75667;SDS011;64266;48.798;44.756;2022-12-07T07:02:44;14.68;;;4.50;;
75667;SDS011;64266;48.798;44.756;2022-12-07T07:05:09;17.23;;;5.78;;
75667;SDS011;64266;48.798;44.756;2022-12-07T07:07:35;14.57;;;5.15;;
75667;SDS011;64266;48.798;44.756;2022-12-07T07:10:01;19.15;;;4.80;;
75667;SDS011;64266;48.798;44.756;2022-12-07T07:12:28;18.80;;;6.10;;
75667;SDS011;64266;48.798;44.756;2022-12-07T07:14:54;14.38;;;5.78;;
75667;SDS011;64266;48.798;44.756;2022-12-07T07:17:20;15.60;;;5.45;;
75667;SDS011;64266;48.798;44.756;2022-12-07T07:19:46;14.50;;;4.75;;
75667;SDS011;64266;48.798;44.756;2022-12-07T07:22:15;13.38;;;4.65;;
75667;SDS011;64266;48.798;44.756;2022-12-07T07:24:40;13.00;;;5.07;;
75667;SDS011;64266;48.798;44.756;2022-12-07T07:27:07;14.90;;;5.78;;
75667;SDS011;64266;48.798;44.756;2022-12-07T07:29:33;22.17;;;6.68;;
75667;SDS011;64266;48.798;44.756;2022-12-07T07:31:59;14.73;;;5.35;;
75667;SDS011;64266;48.798;44.756;2022-12-07T07:34:25;16.98;;;5.35;;
75667;SDS011;64266;48.798;44.756;2022-12-07T07:36:54;15.70;;;5.68;;
75667;SDS011;64266;48.798;44.756;2022-12-07T07:39:28;17.65;;;4.75;;
75667;SDS011;64266;48.798;44.756;2022-12-07T07:41:54;23.85;;;6.75;;
75667;SDS011;64266;48.798;44.756;2022-12-07T07:44:24;17.42;;;6.63;;
75667;SDS011;64266;48.798;44.756;2022-12-07T07:46:51;17.92;;;5.72;;
75667;SDS011;64266;48.798;44.756;2022-12-07T07:49:17;14.60;;;5.50;;
75667;SDS011;64266;48.798;44.756;2022-12-07T07:51:42;11.93;;;5.00;;
75667;SDS011;64266;48.798;44.756;2022-12-07T07:54:08;16.25;;;4.93;;
75667;SDS011;64266;48.798;44.756;2022-12-07T07:56:35;14.88;;;5.20;;
75667;SDS011;64266;48.798;44.756;2022-12-07T07:59:02;12.30;;;4.60;;
75667;SDS011;64266;48.798;44.756;2022-12-07T08:01:27;11.15;;;4.03;;
75667;SDS011;64266;48.798;44.756;2022-12-07T08:03:53;15.00;;;5.65;;
75667;SDS011;64266;48.798;44.756;2022-12-07T08:06:20;17.10;;;5.20;;
75667;SDS011;64266;48.798;44.756;2022-12-07T08:08:45;15.90;;;4.47;;
75667;SDS011;64266;48.798;44.756;2022-12-07T08:11:12;13.13;;;4.35;;
75667;SDS011;64266;48.798;44.756;2022-12-07T08:13:38;14.00;;;4.72;;
75667;SDS011;64266;48.798;44.756;2022-12-07T08:16:05;10.48;;;4.60;;
75667;SDS011;64266;48.798;44.756;2022-12-07T08:18:37;16.20;;;4.75;;
75667;SDS011;64266;48.798;44.756;2022-12-07T08:21:05;12.60;;;4.20;;
75667;SDS011;64266;48.798;44.756;2022-12-07T08:23:32;16.98;;;4.55;;
75667;SDS011;64266;48.798;44.756;2022-12-07T08:26:02;15.43;;;5.07;;
75667;SDS011;64266;48.798;44.756;2022-12-07T08:28:29;16.73;;;6.70;;
75667;SDS011;64266;48.798;44.756;2022-12-07T08:31:03;14.88;;;4.90;;
75667;SDS011;64266;48.798;44.756;2022-12-07T08:33:30;14.00;;;5.03;;
75667;SDS011;64266;48.798;44.756;2022-12-07T08:36:09;12.32;;;4.00;;
75667;SDS011;64266;48.798;44.756;2022-12-07T08:38:37;12.80;;;4.90;;
75667;SDS011;64266;48.798;44.756;2022-12-07T08:41:04;15.88;;;4.43;;
75667;SDS011;64266;48.798;44.756;2022-12-07T08:43:32;11.93;;;4.03;;
75667;SDS011;64266;48.798;44.756;2022-12-07T08:48:34;12.02;;;5.00;;
75667;SDS011;64266;48.798;44.756;2022-12-07T08:51:03;13.18;;;4.53;;
75667;SDS011;64266;48.798;44.756;2022-12-07T08:53:29;15.88;;;4.10;;
75667;SDS011;64266;48.798;44.756;2022-12-07T08:55:55;16.67;;;5.25;;
75667;SDS011;64266;48.798;44.756;2022-12-07T08:58:23;16.13;;;3.80;;
75667;SDS011;64266;48.798;44.756;2022-12-07T09:00:49;10.60;;;4.03;;
75667;SDS011;64266;48.798;44.756;2022-12-07T09:03:16;12.30;;;3.58;;
75667;SDS011;64266;48.798;44.756;2022-12-07T09:05:42;11.75;;;3.67;;
75667;SDS011;64266;48.798;44.756;2022-12-07T09:08:07;14.05;;;3.95;;
75667;SDS011;64266;48.798;44.756;2022-12-07T09:10:34;14.55;;;4.30;;
75667;SDS011;64266;48.798;44.756;2022-12-07T09:13:00;11.38;;;4.95;;
75667;SDS011;64266;48.798;44.756;2022-12-07T09:15:28;10.93;;;5.03;;
75667;SDS011;64266;48.798;44.756;2022-12-07T09:17:59;9.38;;;4.03;;
75667;SDS011;64266;48.798;44.756;2022-12-07T09:20:25;13.68;;;4.45;;
75667;SDS011;64266;48.798;44.756;2022-12-07T09:22:51;15.35;;;4.15;;
75667;SDS011;64266;48.798;44.756;2022-12-07T09:25:19;11.95;;;3.30;;
75667;SDS011;64266;48.798;44.756;2022-12-07T09:27:44;15.77;;;4.15;;
75667;SDS011;64266;48.798;44.756;2022-12-07T09:30:10;13.35;;;4.65;;
75667;SDS011;64266;48.798;44.756;2022-12-07T09:32:36;13.43;;;5.03;;
75667;SDS011;64266;48.798;44.756;2022-12-07T09:35:02;13.88;;;4.35;;
75667;SDS011;64266;48.798;44.756;2022-12-07T09:37:29;11.13;;;4.00;;
75667;SDS011;64266;48.798;44.756;2022-12-07T09:39:56;11.75;;;4.55;;
75667;SDS011;64266;48.798;44.756;2022-12-07T09:42:38;13.40;;;4.10;;
75667;SDS011;64266;48.798;44.756;2022-12-07T09:45:14;9.63;;;3.75;;
75667;SDS011;64266;48.798;44.756;2022-12-07T09:47:42;10.82;;;3.78;;
75667;SDS011;64266;48.798;44.756;2022-12-07T09:50:16;13.20;;;3.58;;
75667;SDS011;64266;48.798;44.756;2022-12-07T09:52:47;11.52;;;4.78;;
75667;SDS011;64266;48.798;44.756;2022-12-07T09:55:27;10.65;;;3.60;;
75667;SDS011;64266;48.798;44.756;2022-12-07T09:57:54;9.90;;;3.20;;
75667;SDS011;64266;48.798;44.756;2022-12-07T10:00:22;11.23;;;3.60;;
75667;SDS011;64266;48.798;44.756;2022-12-07T10:02:56;13.20;;;3.25;;
75667;SDS011;64266;48.798;44.756;2022-12-07T10:05:28;9.52;;;3.47;;
75667;SDS011;64266;48.798;44.756;2022-12-07T10:07:58;10.98;;;4.53;;
75667;SDS011;64266;48.798;44.756;2022-12-07T10:10:26;11.50;;;3.60;;
75667;SDS011;64266;48.798;44.756;2022-12-07T10:12:57;9.10;;;3.10;;
75667;SDS011;64266;48.798;44.756;2022-12-07T10:15:42;7.53;;;2.78;;
75667;SDS011;64266;48.798;44.756;2022-12-07T10:23:37;14.45;;;4.10;;
75667;SDS011;64266;48.798;44.756;2022-12-07T10:29:20;15.35;;;4.07;;
75667;SDS011;64266;48.798;44.756;2022-12-07T10:31:58;10.05;;;3.58;;
75667;SDS011;64266;48.798;44.756;2022-12-07T10:34:39;11.13;;;4.15;;
75667;SDS011;64266;48.798;44.756;2022-12-07T10:39:47;10.68;;;3.47;;
75667;SDS011;64266;48.798;44.756;2022-12-07T10:42:26;11.23;;;3.75;;
75667;SDS011;64266;48.798;44.756;2022-12-07T10:45:12;12.90;;;4.55;;
75667;SDS011;64266;48.798;44.756;2022-12-07T10:47:48;12.02;;;3.65;;
75667;SDS011;64266;48.798;44.756;2022-12-07T11:04:36;15.18;;;5.53;;
75667;SDS011;64266;48.798;44.756;2022-12-07T11:10:00;9.32;;;2.92;;
75667;SDS011;64266;48.798;44.756;2022-12-07T11:32:21;9.10;;;2.60;;
75667;SDS011;64266;48.798;44.756;2022-12-07T11:37:55;15.73;;;5.90;;
75667;SDS011;64266;48.798;44.756;2022-12-07T11:40:31;16.98;;;6.55;;
75667;SDS011;64266;48.798;44.756;2022-12-07T11:45:33;14.85;;;3.60;;
75667;SDS011;64266;48.798;44.756;2022-12-07T11:48:43;12.68;;;3.00;;
75667;SDS011;64266;48.798;44.756;2022-12-07T11:50:56;7.18;;;2.67;;
75667;SDS011;64266;48.798;44.756;2022-12-07T11:56:07;15.52;;;5.20;;
75667;SDS011;64266;48.798;44.756;2022-12-07T11:58:51;27.85;;;4.60;;
75667;SDS011;64266;48.798;44.756;2022-12-07T12:04:02;9.20;;;2.83;;
75667;SDS011;64266;48.798;44.756;2022-12-07T12:06:38;21.60;;;4.28;;
75667;SDS011;64266;48.798;44.756;2022-12-07T12:14:23;9.20;;;2.60;;
75667;SDS011;64266;48.798;44.756;2022-12-07T12:20:24;23.45;;;5.38;;
75667;SDS011;64266;48.798;44.756;2022-12-07T12:23:00;23.88;;;7.43;;
75667;SDS011;64266;48.798;44.756;2022-12-07T12:25:37;12.95;;;4.13;;
75667;SDS011;64266;48.798;44.756;2022-12-07T12:28:18;12.23;;;3.50;;
75667;SDS011;64266;48.798;44.756;2022-12-07T12:31:03;9.02;;;2.67;;
75667;SDS011;64266;48.798;44.756;2022-12-07T12:33:33;12.15;;;3.00;;
75667;SDS011;64266;48.798;44.756;2022-12-07T12:46:46;9.18;;;2.42;;
75667;SDS011;64266;48.798;44.756;2022-12-07T12:51:55;6.65;;;2.38;;
75667;SDS011;64266;48.798;44.756;2022-12-07T12:54:30;9.77;;;3.35;;
75667;SDS011;64266;48.798;44.756;2022-12-07T12:56:59;36.90;;;10.63;;
75667;SDS011;64266;48.798;44.756;2022-12-07T12:59:31;60.60;;;16.83;;
75667;SDS011;64266;48.798;44.756;2022-12-07T13:04:54;22.60;;;5.03;;
75667;SDS011;64266;48.798;44.756;2022-12-07T13:13:43;20.77;;;4.38;;
75667;SDS011;64266;48.798;44.756;2022-12-07T13:15:45;12.70;;;3.45;;
75667;SDS011;64266;48.798;44.756;2022-12-07T13:18:34;13.38;;;3.72;;
75667;SDS011;64266;48.798;44.756;2022-12-07T13:31:39;15.48;;;3.30;;
75667;SDS011;64266;48.798;44.756;2022-12-07T13:36:56;15.82;;;3.28;;
75667;SDS011;64266;48.798;44.756;2022-12-07T13:39:26;16.05;;;5.38;;
75667;SDS011;64266;48.798;44.756;2022-12-07T13:41:57;20.58;;;6.85;;
75667;SDS011;64266;48.798;44.756;2022-12-07T13:44:24;25.23;;;7.13;;
75667;SDS011;64266;48.798;44.756;2022-12-07T13:49:38;16.10;;;5.10;;
75667;SDS011;64266;48.798;44.756;2022-12-07T13:52:22;20.00;;;5.05;;
75667;SDS011;64266;48.798;44.756;2022-12-07T13:57:30;22.35;;;5.93;;
75667;SDS011;64266;48.798;44.756;2022-12-07T14:00:00;23.40;;;5.18;;
75667;SDS011;64266;48.798;44.756;2022-12-07T14:02:32;31.52;;;5.35;;
75667;SDS011;64266;48.798;44.756;2022-12-07T14:05:06;13.82;;;4.75;;
75667;SDS011;64266;48.798;44.756;2022-12-07T14:10:33;15.38;;;4.25;;
75667;SDS011;64266;48.798;44.756;2022-12-07T14:15:31;9.93;;;3.08;;
75667;SDS011;64266;48.798;44.756;2022-12-07T14:18:01;12.23;;;2.97;;
75667;SDS011;64266;48.798;44.756;2022-12-07T14:20:34;18.58;;;3.80;;
75667;SDS011;64266;48.798;44.756;2022-12-07T14:23:00;13.07;;;3.70;;
75667;SDS011;64266;48.798;44.756;2022-12-07T14:25:44;13.65;;;4.30;;
75667;SDS011;64266;48.798;44.756;2022-12-07T14:28:25;20.52;;;6.10;;
75667;SDS011;64266;48.798;44.756;2022-12-07T14:30:58;23.52;;;8.52;;
75667;SDS011;64266;48.798;44.756;2022-12-07T14:33:24;23.10;;;8.00;;
75667;SDS011;64266;48.798;44.756;2022-12-07T14:35:50;16.98;;;4.53;;
75667;SDS011;64266;48.798;44.756;2022-12-07T14:38:20;12.95;;;4.78;;
75667;SDS011;64266;48.798;44.756;2022-12-07T14:40:47;9.77;;;4.13;;
75667;SDS011;64266;48.798;44.756;2022-12-07T14:43:14;12.05;;;4.22;;
75667;SDS011;64266;48.798;44.756;2022-12-07T14:45:42;9.85;;;3.03;;
75667;SDS011;64266;48.798;44.756;2022-12-07T14:48:12;14.52;;;3.35;;
75667;SDS011;64266;48.798;44.756;2022-12-07T14:50:49;10.43;;;3.08;;
75667;SDS011;64266;48.798;44.756;2022-12-07T14:53:18;14.23;;;4.00;;
75667;SDS011;64266;48.798;44.756;2022-12-07T14:58:16;13.20;;;3.65;;
75667;SDS011;64266;48.798;44.756;2022-12-07T15:00:42;10.93;;;2.00;;
75667;SDS011;64266;48.798;44.756;2022-12-07T15:03:09;8.95;;;2.22;;
75667;SDS011;64266;48.798;44.756;2022-12-07T15:05:36;13.50;;;2.60;;
75667;SDS011;64266;48.798;44.756;2022-12-07T15:08:02;10.52;;;2.28;;
75667;SDS011;64266;48.798;44.756;2022-12-07T15:10:31;8.18;;;3.38;;
75667;SDS011;64266;48.798;44.756;2022-12-07T15:13:02;10.13;;;2.50;;
75667;SDS011;64266;48.798;44.756;2022-12-07T15:15:48;6.05;;;2.22;;
75667;SDS011;64266;48.798;44.756;2022-12-07T15:18:15;12.95;;;2.65;;
75667;SDS011;64266;48.798;44.756;2022-12-07T15:20:42;8.07;;;2.17;;
75667;SDS011;64266;48.798;44.756;2022-12-07T15:23:09;6.47;;;1.83;;
75667;SDS011;64266;48.798;44.756;2022-12-07T15:25:36;12.10;;;2.60;;
75667;SDS011;64266;48.798;44.756;2022-12-07T15:28:02;12.57;;;2.78;;
75667;SDS011;64266;48.798;44.756;2022-12-07T15:30:28;6.18;;;2.13;;
75667;SDS011;64266;48.798;44.756;2022-12-07T15:32:54;6.78;;;2.22;;
75667;SDS011;64266;48.798;44.756;2022-12-07T15:35:19;7.20;;;2.83;;
75667;SDS011;64266;48.798;44.756;2022-12-07T15:37:46;8.48;;;2.83;;
75667;SDS011;64266;48.798;44.756;2022-12-07T15:40:12;10.27;;;2.60;;
75667;SDS011;64266;48.798;44.756;2022-12-07T15:42:39;7.25;;;1.90;;
75667;SDS011;64266;48.798;44.756;2022-12-07T15:45:05;9.02;;;2.92;;
75667;SDS011;64266;48.798;44.756;2022-12-07T15:50:03;6.85;;;2.33;;
75667;SDS011;64266;48.798;44.756;2022-12-07T15:52:31;6.03;;;2.28;;
75667;SDS011;64266;48.798;44.756;2022-12-07T15:54:57;7.10;;;2.22;;
75667;SDS011;64266;48.798;44.756;2022-12-07T15:57:25;7.68;;;2.60;;
75667;SDS011;64266;48.798;44.756;2022-12-07T15:59:52;7.60;;;2.33;;
75667;SDS011;64266;48.798;44.756;2022-12-07T16:02:19;6.30;;;2.42;;
75667;SDS011;64266;48.798;44.756;2022-12-07T16:04:45;11.93;;;2.67;;
75667;SDS011;64266;48.798;44.756;2022-12-07T16:07:11;7.32;;;2.13;;
75667;SDS011;64266;48.798;44.756;2022-12-07T16:09:39;8.32;;;3.08;;
75667;SDS011;64266;48.798;44.756;2022-12-07T16:12:06;10.45;;;2.58;;
75667;SDS011;64266;48.798;44.756;2022-12-07T16:14:32;11.35;;;2.63;;
75667;SDS011;64266;48.798;44.756;2022-12-07T16:16:59;9.07;;;3.03;;
75667;SDS011;64266;48.798;44.756;2022-12-07T16:19:25;9.73;;;2.60;;
75667;SDS011;64266;48.798;44.756;2022-12-07T16:21:51;9.20;;;2.75;;
75667;SDS011;64266;48.798;44.756;2022-12-07T16:24:18;12.05;;;2.85;;
75667;SDS011;64266;48.798;44.756;2022-12-07T16:26:44;12.35;;;3.05;;
75667;SDS011;64266;48.798;44.756;2022-12-07T16:29:11;10.95;;;2.70;;
75667;SDS011;64266;48.798;44.756;2022-12-07T16:31:37;14.20;;;3.53;;
75667;SDS011;64266;48.798;44.756;2022-12-07T16:34:04;55.03;;;33.47;;
75667;SDS011;64266;48.798;44.756;2022-12-07T16:36:30;94.75;;;37.95;;
75667;SDS011;64266;48.798;44.756;2022-12-07T16:38:57;88.63;;;29.52;;
75667;SDS011;64266;48.798;44.756;2022-12-07T16:41:24;18.63;;;6.00;;
75667;SDS011;64266;48.798;44.756;2022-12-07T16:43:50;28.55;;;15.73;;
75667;SDS011;64266;48.798;44.756;2022-12-07T16:46:18;45.85;;;24.23;;
75667;SDS011;64266;48.798;44.756;2022-12-07T16:48:44;31.58;;;14.43;;
75667;SDS011;64266;48.798;44.756;2022-12-07T16:51:11;64.82;;;29.67;;
75667;SDS011;64266;48.798;44.756;2022-12-07T16:53:39;32.20;;;12.25;;
75667;SDS011;64266;48.798;44.756;2022-12-07T16:56:14;14.40;;;4.85;;
75667;SDS011;64266;48.798;44.756;2022-12-07T16:58:44;11.20;;;3.45;;
75667;SDS011;64266;48.798;44.756;2022-12-07T17:01:23;11.45;;;3.33;;
75667;SDS011;64266;48.798;44.756;2022-12-07T17:03:49;12.15;;;3.90;;
75667;SDS011;64266;48.798;44.756;2022-12-07T17:08:43;11.15;;;3.90;;
75667;SDS011;64266;48.798;44.756;2022-12-07T17:11:14;11.65;;;4.95;;
75667;SDS011;64266;48.798;44.756;2022-12-07T17:13:43;13.45;;;4.63;;
75667;SDS011;64266;48.798;44.756;2022-12-07T17:19:19;12.18;;;4.65;;
75667;SDS011;64266;48.798;44.756;2022-12-07T17:21:45;14.85;;;3.60;;
75667;SDS011;64266;48.798;44.756;2022-12-07T17:24:12;12.20;;;4.30;;